»·PEaware :: AAL2489 KDFW-KLAX

AAL2489 :: KDFW-KLAX

FLIGHT INFORMATION

Flight Status: Arrived
Operator:
American Airlines
More flights by this operator :: More flights under this callsign
Pilot: Javier L. (14258)
Aircraft: Unknown
(B77L)
More flights by this aircraft type
Origin: KDFW Dallas-Ft Worth Intl
United States
Destination: KLAX Los Angeles Intl
United States
More flights between these airports :: More routes between these airports
Route: N0485F380 WSTEX2 CIKAN DCT EWM J4 TNP SEAVU2
File this flight plan on PilotEdge
Remarks: PBN / A1B1C1D1L1O1S1 NAV / RNVD1E2A1 DOF / 170219 REG / N776AN EET / KZAB0052 KZLA0205 SEL / KPQS RVR / 75 OPR / AMERICAN AIRLINES PER / D
Altitude:
(Current/Filed)
380ft
Speed:
(Current/Filed)
485kts
Departed: 19-Feb-17 02:53 PM
Arrived: 19-Feb-17 05:40 PM
Distance/Time
Traveled:
1070nm/2:47
Distance/Time
To Go:
Arrived

Flight Plot

Page will automatically refresh every two minutes.

Flight plan parsing failed; only flown route is shown


Map Options




Map Legend


Flown Route
Filed Route
Departure Airport
Arrival Airport
Navaid (VOR, NDB)
Fix

Horizontal Profiles

Position Reports

Time Latitude Longitude Heading Altitude Ground
Speed
19-Feb-17 14:11 32.899967 -97.045595 144 620ft 0kts
19-Feb-17 14:11 32.899967 -97.045595 144 620ft 0kts
19-Feb-17 14:12 32.899967 -97.045595 144 620ft 0kts
19-Feb-17 14:13 32.899967 -97.045595 144 620ft 0kts
19-Feb-17 14:14 32.899967 -97.045595 144 620ft 0kts
19-Feb-17 14:15 32.899967 -97.045595 144 620ft 0kts
19-Feb-17 14:17 32.899967 -97.045595 144 620ft 0kts
19-Feb-17 14:18 32.899967 -97.045595 144 620ft 0kts
19-Feb-17 14:18 32.899967 -97.045595 144 620ft 0kts
19-Feb-17 14:19 32.899967 -97.045595 144 620ft 0kts
19-Feb-17 14:21 32.899967 -97.045595 144 620ft 0kts
19-Feb-17 14:21 32.899967 -97.045595 144 620ft 0kts
19-Feb-17 14:22 32.899967 -97.045595 144 620ft 0kts
19-Feb-17 14:23 32.899967 -97.045595 144 620ft 0kts
19-Feb-17 14:24 32.899967 -97.045595 144 620ft 0kts
19-Feb-17 14:25 32.899967 -97.045595 144 620ft 0kts
19-Feb-17 14:26 32.899967 -97.045595 144 620ft 0kts
19-Feb-17 14:27 32.899967 -97.045595 144 620ft 0kts
19-Feb-17 14:28 32.899967 -97.045595 144 620ft 0kts
19-Feb-17 14:29 32.899967 -97.045595 144 620ft 0kts
19-Feb-17 14:30 32.899967 -97.045595 144 620ft 0kts
19-Feb-17 14:31 32.899967 -97.045595 144 620ft 0kts
19-Feb-17 14:32 32.899967 -97.045595 144 620ft 0kts
19-Feb-17 14:33 32.899967 -97.045595 144 620ft 0kts
19-Feb-17 14:34 32.899967 -97.045595 144 620ft 0kts
19-Feb-17 14:35 32.899967 -97.045595 144 620ft 0kts
19-Feb-17 14:36 32.899967 -97.045595 144 620ft 0kts
19-Feb-17 14:37 32.899967 -97.045595 144 620ft 0kts
19-Feb-17 14:38 32.899967 -97.045595 144 620ft 0kts
19-Feb-17 14:39 32.899967 -97.045595 144 620ft 0kts
19-Feb-17 14:40 32.899967 -97.045595 144 620ft 0kts
19-Feb-17 14:41 32.899967 -97.045595 144 620ft 0kts
19-Feb-17 14:42 32.900085 -97.045700 134 620ft 2kts
19-Feb-17 14:43 32.900255 -97.046348 71 620ft 2kts
19-Feb-17 14:44 32.899910 -97.046786 0 620ft 2kts
19-Feb-17 14:45 32.899762 -97.046785 359 620ft 0kts
19-Feb-17 14:46 32.899762 -97.046785 359 620ft 0kts
19-Feb-17 14:47 32.899762 -97.046785 359 620ft 0kts
19-Feb-17 14:48 32.900863 -97.047345 310 620ft 7kts
19-Feb-17 14:49 32.901934 -97.048725 0 620ft 19kts
19-Feb-17 14:50 32.908132 -97.048673 0 620ft 20kts
19-Feb-17 14:51 32.914453 -97.048633 359 620ft 14kts
19-Feb-17 14:52 32.915649 -97.049782 274 620ft 16kts
19-Feb-17 14:53 32.909303 -97.050761 180 620ft 98kts
19-Feb-17 14:54 32.866657 -97.053748 186 2407ft 173kts
19-Feb-17 14:55 32.828377 -97.114751 248 4713ft 270kts
19-Feb-17 14:56 32.819320 -97.205189 264 8693ft 287kts
19-Feb-17 14:57 32.806035 -97.300533 249 11746ft 321kts
19-Feb-17 14:58 32.774664 -97.412560 247 14346ft 380kts
19-Feb-17 14:59 32.738751 -97.532810 245 18030ft 396kts
19-Feb-17 15:00 32.700503 -97.659470 245 21386ft 413kts
19-Feb-17 15:01 32.673822 -97.793029 257 24316ft 437kts
19-Feb-17 15:02 32.662343 -97.940332 259 27207ft 453kts
19-Feb-17 15:03 32.650377 -98.089008 258 29626ft 469kts
19-Feb-17 15:04 32.638230 -98.238818 257 33531ft 436kts
19-Feb-17 15:05 32.626659 -98.379697 257 35757ft 430kts
19-Feb-17 15:06 32.614856 -98.520260 257 37418ft 431kts
19-Feb-17 15:07 32.603093 -98.661277 258 37859ft 429kts
19-Feb-17 15:08 32.591537 -98.801866 257 37852ft 429kts
19-Feb-17 15:09 32.579497 -98.942397 257 37851ft 429kts
19-Feb-17 15:10 32.567550 -99.083294 257 37852ft 428kts
19-Feb-17 15:11 32.555052 -99.222710 257 37855ft 428kts
19-Feb-17 15:12 32.542877 -99.364375 258 37859ft 432kts
19-Feb-17 15:13 32.534661 -99.506106 259 37861ft 431kts
19-Feb-17 15:14 32.525884 -99.647617 258 37860ft 431kts
19-Feb-17 15:15 32.517290 -99.788669 259 37860ft 431kts
19-Feb-17 15:16 32.508509 -99.931149 259 37864ft 431kts
19-Feb-17 15:17 32.499710 -100.072557 257 37870ft 432kts
19-Feb-17 15:18 32.490234 -100.214398 256 37880ft 430kts
19-Feb-17 15:19 32.480880 -100.355490 257 37927ft 432kts
19-Feb-17 15:20 32.471205 -100.497682 257 37919ft 432kts
19-Feb-17 15:21 32.461359 -100.639139 257 37921ft 431kts
19-Feb-17 15:22 32.451840 -100.779772 258 37928ft 432kts
19-Feb-17 15:23 32.442218 -100.922968 257 37937ft 432kts
19-Feb-17 15:24 32.432277 -101.064217 257 37951ft 433kts
19-Feb-17 15:25 32.422091 -101.206017 257 37963ft 433kts
19-Feb-17 15:26 32.411677 -101.348649 257 37979ft 435kts
19-Feb-17 15:27 32.401118 -101.490990 257 37989ft 435kts
19-Feb-17 15:28 32.390352 -101.633965 257 37991ft 435kts
19-Feb-17 15:29 32.379465 -101.776356 257 37985ft 435kts
19-Feb-17 15:30 32.368468 -101.918057 257 37978ft 435kts
19-Feb-17 15:31 32.357194 -102.061281 256 37971ft 441kts
19-Feb-17 15:32 32.345468 -102.208032 256 37953ft 447kts
19-Feb-17 15:33 32.333652 -102.353714 256 37953ft 445kts
19-Feb-17 15:34 32.321695 -102.499106 256 37946ft 445kts
19-Feb-17 15:35 32.309511 -102.645141 256 37946ft 446kts
19-Feb-17 15:36 32.297177 -102.790934 256 37947ft 446kts
19-Feb-17 15:37 32.284684 -102.936595 256 37944ft 445kts
19-Feb-17 15:38 32.272025 -103.082236 256 37943ft 446kts
19-Feb-17 15:39 32.259183 -103.227982 256 37940ft 447kts
19-Feb-17 15:40 32.246114 -103.374344 256 37933ft 446kts
19-Feb-17 15:41 32.232942 -103.519939 256 37931ft 447kts
19-Feb-17 15:42 32.219567 -103.665896 256 37933ft 447kts
19-Feb-17 15:43 32.205992 -103.812162 256 37931ft 447kts
19-Feb-17 15:44 32.192326 -103.957539 256 37929ft 448kts
19-Feb-17 15:45 32.178377 -104.103755 258 37938ft 450kts
19-Feb-17 15:46 32.164186 -104.252182 258 37918ft 460kts
19-Feb-17 15:47 32.149638 -104.400582 257 37933ft 452kts
19-Feb-17 15:48 32.135115 -104.548471 258 37949ft 453kts
19-Feb-17 15:49 32.120365 -104.695658 257 37958ft 447kts
19-Feb-17 15:50 32.105597 -104.841135 257 37971ft 453kts
19-Feb-17 15:51 32.090390 -104.990315 257 37962ft 457kts
19-Feb-17 15:52 32.075125 -105.136954 256 37963ft 446kts
19-Feb-17 15:53 32.060543 -105.277294 257 37941ft 451kts
19-Feb-17 15:54 32.051175 -105.366868 257 37981ft 449kts
19-Feb-17 15:55 32.038413 -105.486771 258 37972ft 453kts
19-Feb-17 15:56 32.022380 -105.634290 258 37978ft 456kts
19-Feb-17 15:57 32.006251 -105.782718 257 37998ft 466kts
19-Feb-17 15:58 31.989844 -105.934342 259 37995ft 460kts
19-Feb-17 15:59 31.973168 -106.083657 259 37983ft 463kts
19-Feb-17 16:00 31.956314 -106.232145 259 37990ft 447kts
19-Feb-17 16:01 31.964262 -106.382041 274 38000ft 480kts
19-Feb-17 16:02 31.982450 -106.537429 274 37996ft 471kts
19-Feb-17 16:03 31.999897 -106.690222 275 38002ft 470kts
19-Feb-17 16:04 32.017813 -106.842308 274 38011ft 471kts
19-Feb-17 16:05 32.035266 -106.996181 274 38014ft 471kts
19-Feb-17 16:06 32.052355 -107.149004 274 38015ft 471kts
19-Feb-17 16:07 32.067148 -107.282727 274 38014ft 472kts
19-Feb-17 16:08 32.083956 -107.436281 274 38012ft 472kts
19-Feb-17 16:09 32.100540 -107.589579 274 38011ft 472kts
19-Feb-17 16:10 32.116991 -107.743378 274 38011ft 471kts
19-Feb-17 16:11 32.133190 -107.896585 274 38025ft 471kts
19-Feb-17 16:12 32.149254 -108.050526 275 38033ft 471kts
19-Feb-17 16:13 32.164865 -108.201680 278 38035ft 466kts
19-Feb-17 16:14 32.180454 -108.354383 278 38039ft 466kts
19-Feb-17 16:15 32.195769 -108.506345 278 38040ft 466kts
19-Feb-17 16:16 32.210152 -108.650819 278 38040ft 465kts
19-Feb-17 16:17 32.225053 -108.802321 278 38040ft 465kts
19-Feb-17 16:18 32.240068 -108.953658 278 38040ft 465kts
19-Feb-17 16:19 32.253947 -109.100052 278 38039ft 464kts
19-Feb-17 16:20 32.268221 -109.244503 283 38038ft 462kts
19-Feb-17 16:21 32.312228 -109.386864 294 38035ft 460kts
19-Feb-17 16:22 32.360362 -109.524666 294 38033ft 458kts
19-Feb-17 16:23 32.409029 -109.664908 294 38038ft 457kts
19-Feb-17 16:24 32.457785 -109.804308 294 38036ft 456kts
19-Feb-17 16:25 32.505505 -109.942541 294 38034ft 454kts
19-Feb-17 16:26 32.552834 -110.080495 297 38038ft 440kts
19-Feb-17 16:27 32.595885 -110.206318 300 38039ft 400kts
19-Feb-17 16:28 32.638108 -110.330238 300 38043ft 404kts
19-Feb-17 16:29 32.679959 -110.453567 299 38051ft 403kts
19-Feb-17 16:31 32.720155 -110.572474 299 38054ft 403kts
19-Feb-17 16:32 32.761599 -110.695538 299 38055ft 402kts
19-Feb-17 16:33 32.800081 -110.810240 299 38056ft 401kts
19-Feb-17 16:34 32.841186 -110.933197 299 38057ft 400kts
19-Feb-17 16:35 32.882130 -111.056159 299 38065ft 400kts
19-Feb-17 16:36 32.922881 -111.179017 299 38065ft 399kts
19-Feb-17 16:37 32.963520 -111.302007 298 38063ft 398kts
19-Feb-17 16:38 33.002619 -111.420796 298 38063ft 397kts
19-Feb-17 16:39 33.042793 -111.543317 298 38061ft 396kts
19-Feb-17 16:40 33.082674 -111.665425 298 38059ft 395kts
19-Feb-17 16:41 33.122578 -111.788070 298 38047ft 395kts
19-Feb-17 16:42 33.162210 -111.910369 298 38038ft 394kts
19-Feb-17 16:43 33.201424 -112.031843 298 38037ft 394kts
19-Feb-17 16:44 33.240231 -112.152550 298 38034ft 395kts
19-Feb-17 16:45 33.276715 -112.266464 298 38036ft 395kts
19-Feb-17 16:46 33.315794 -112.388929 297 38040ft 394kts
19-Feb-17 16:47 33.355043 -112.511513 297 38043ft 394kts
19-Feb-17 16:48 33.393719 -112.633924 297 38049ft 395kts
19-Feb-17 16:49 33.432448 -112.757392 297 38049ft 395kts
19-Feb-17 16:50 33.472488 -112.879074 299 38045ft 393kts
19-Feb-17 16:51 33.516002 -112.999531 299 38042ft 394kts
19-Feb-17 16:52 33.559175 -113.121000 298 38042ft 395kts
19-Feb-17 16:53 33.602323 -113.242096 298 38038ft 395kts
19-Feb-17 16:54 33.644858 -113.361504 298 38033ft 396kts
19-Feb-17 16:55 33.687991 -113.483071 298 38027ft 396kts
19-Feb-17 16:56 33.730974 -113.605459 297 38024ft 397kts
19-Feb-17 16:57 33.773425 -113.727364 297 38019ft 397kts
19-Feb-17 16:58 33.813442 -113.842164 297 38015ft 397kts
19-Feb-17 16:59 33.855961 -113.964934 297 38011ft 398kts
19-Feb-17 17:00 33.897952 -114.086827 297 38008ft 398kts
19-Feb-17 17:01 33.940123 -114.209059 297 38006ft 397kts
19-Feb-17 17:02 33.982869 -114.332281 297 38004ft 398kts
19-Feb-17 17:03 34.025420 -114.456007 297 38000ft 398kts
19-Feb-17 17:04 34.066897 -114.578369 296 38000ft 397kts
19-Feb-17 17:05 34.103594 -114.705640 284 38004ft 406kts
19-Feb-17 17:06 34.105319 -114.836701 277 38002ft 411kts
19-Feb-17 17:07 34.105507 -114.975434 278 38000ft 411kts
19-Feb-17 17:08 34.106741 -115.110781 279 38001ft 409kts
19-Feb-17 17:09 34.108541 -115.249952 278 38003ft 409kts
19-Feb-17 17:10 34.109652 -115.375533 278 38021ft 408kts
19-Feb-17 17:11 34.111008 -115.512354 278 38025ft 408kts
19-Feb-17 17:12 34.111662 -115.648414 278 38031ft 407kts
19-Feb-17 17:13 34.110743 -115.785644 273 38036ft 413kts
19-Feb-17 17:14 34.090863 -115.921179 268 36483ft 409kts
19-Feb-17 17:15 34.070297 -116.051966 267 33950ft 408kts
19-Feb-17 17:16 34.050610 -116.187127 267 31524ft 404kts
19-Feb-17 17:17 34.030290 -116.320822 268 29428ft 401kts
19-Feb-17 17:18 34.010354 -116.451083 267 27221ft 389kts
19-Feb-17 17:19 33.997961 -116.576446 273 25124ft 372kts
19-Feb-17 17:20 33.988165 -116.701167 271 24107ft 376kts
19-Feb-17 17:21 33.978613 -116.822775 271 20899ft 363kts
19-Feb-17 17:22 33.968989 -116.937616 270 19161ft 357kts
19-Feb-17 17:23 33.959160 -117.053878 269 17342ft 337kts
19-Feb-17 17:24 33.950090 -117.161702 269 16970ft 321kts
19-Feb-17 17:25 33.941138 -117.267173 269 16974ft 320kts
19-Feb-17 17:26 33.932607 -117.373631 274 16878ft 315kts
19-Feb-17 17:27 33.966049 -117.466902 294 14660ft 300kts
19-Feb-17 17:28 33.997951 -117.559982 293 11047ft 298kts
19-Feb-17 17:28 34.016300 -117.639832 262 10159ft 280kts
19-Feb-17 17:30 34.000667 -117.743233 264 9033ft 266kts
19-Feb-17 17:31 33.992503 -117.830821 265 8245ft 259kts
19-Feb-17 17:32 33.984468 -117.917229 265 6875ft 258kts
19-Feb-17 17:32 33.979065 -117.974384 264 6032ft 260kts
19-Feb-17 17:33 33.970809 -118.055645 263 5396ft 225kts
19-Feb-17 17:34 33.964099 -118.121673 263 4336ft 209kts
19-Feb-17 17:36 33.957383 -118.187097 263 3273ft 202kts
19-Feb-17 17:36 33.951745 -118.242258 263 2416ft 189kts
19-Feb-17 17:37 33.945940 -118.298982 264 1499ft 145kts
19-Feb-17 17:38 33.941133 -118.346220 264 717ft 141kts
19-Feb-17 17:39 33.936387 -118.392261 263 140ft 123kts
19-Feb-17 17:40 33.935794 -118.405842 294 139ft 11kts
19-Feb-17 17:41 33.935960 -118.406921 266 139ft 0kts
19-Feb-17 17:42 33.936195 -118.407467 350 139ft 0kts
19-Feb-17 17:43 33.938872 -118.407201 80 139ft 9kts
19-Feb-17 17:44 33.938972 -118.406105 83 139ft 2kts
19-Feb-17 17:45 33.939853 -118.405467 352 139ft 0kts
19-Feb-17 17:46 33.939855 -118.405467 352 139ft 0kts
19-Feb-17 17:47 33.941070 -118.405647 353 139ft 5kts
19-Feb-17 17:48 33.941575 -118.406196 265 139ft 1kts
19-Feb-17 17:49 33.941570 -118.406256 265 139ft 0kts

Navigation Log

Ident Type
Flight plan parsing failed, navigation log unavailable